Riverton, WY

2:28 PM MDT on July 31, 2014 (GMT -0600)
Logan Park (KWYRIVER4) Elev 4984 ft | 43.04 °N, 108.39 °W | Change Station

Current weather conditions updated 1 second ago

Clear
Clear
83.0 °F
Feels Like 81 °F
N
2.0
Wind Variable Wind from SE
Gusts 4.0 mph

Today is forecast to be Warmer than yesterday.

Today
High -- | Low -- °F
--% Chance of Precip.
Yesterday
High -- | Low -- °F
Precip. -- in
6:03 AM 8:36 PM
Waxing Crescent, 20% visible
Pressure 30.09 in
Visibility 10.0 miles
Clouds Clear
Heat Index 81 °F
Dew Point 42 °F
Humidity 24%
Rainfall 0.00 in
Snow Depth Not available.
UV 11 out of 12
Pollen 6.60 out of 12
Air Quality Not available.
Flu Activity Not available.
METAR KRIW 311953Z AUTO 15007KT 100V170 10SM CLR 26/02 A3028 RMK AO2 SLP189 T02610022

More Conditions Fewer Conditions

Pressure 30.09 in
Visibility 10.0 miles
Clouds Clear
Heat Index 81 °F
Dew Point 42 °F
Humidity 24%
Rainfall 0.00 in
Snow Depth Not available.
UV 11 out of 12
Pollen 6.60 out of 12
Air Quality Not available.
Flu Activity Not available.
METAR KRIW 311953Z AUTO 15007KT 100V170 10SM CLR 26/02 A3028 RMK AO2 SLP189 T02610022

More Conditions Fewer Conditions

10-Day Weather Forecast

Almanac

Astronomy

Jul. 31, 2014 Rise Set
Actual Time 6:03 AM MDT 8:36 PM MDT
Civil Twilight 5:30 AM MDT 9:08 PM MDT
Nautical Twilight 4:50 AM MDT 9:48 PM MDT
Astronomical Twilight 4:04 AM MDT 10:34 PM MDT
Moon 10:42 AM MDT 10:41 PM MDT
Length of Visible Light 15h 37m
Length of Day
14h 32m
Tomorrow will be 2m 14s shorter.
Waxing Crescent, 20% of the Moon is Illuminated
Today
Waxing Crescent
Aug 3
First Quarter
Aug 10
Full
Aug 17
Last Quarter
Aug 25
New

Today's Extremes

State Highs State Lows

Community

WunderPhotos

Upload Photos

1,739,446 photos uploaded!

Nearby

Snow Depth

Station Depth Elevation
Big Sandy Opening 0 in 9080 ft
Burroughs Creek 0 in 8750 ft
Kendall R.S. 0 in 7740 ft
Loomis Park 0 in 8240 ft
Granite Creek 0 in 6770 ft

Earthquake Activity

City Distance Mag. Time & Date
No recent earthquake activity has been reported nearby.
Minimum magnitude displayed is 2.5.

Coastal Water Temperatures

Place Temperature
No Stations Reporting

Nearby Weather Stations

Station Location Temp. Heat Index Dew Point Humidity Wind Precip. Elev Updated Type
Logan Park, Riverton, WY 83.0 °F 81 °F 42 °F 24% SE  at  2.0 mph 0.00 in / hr 4984 ft 2:28 PM MDT Rapid Fire
Riverton, WY 79.2 °F 78 °F 37 °F 22% SE  at  0.0 mph - / hr 5405 ft 2:22 PM MDT Normal
HADS LITTLE WIND RIVER NEAR RIVERTON WY, Saint Stephens, WY 76 °F 74 °F - - North  at  - 0.00 in / hr 4900 ft 1:15 PM MDT MADIS
HADS BOYSEN RESERVOIR WEATHER STATION WY, Shoshoni, WY 79 °F 77 °F - - South  at  2 mph 0.00 in / hr 4708 ft 1:30 PM MDT MADIS

Show More Stations Show Fewer Stations